Time;durP1;ratioP1;P1;durP2;ratioP2;P2;SDS_P1;SDS_P2;PMS_P1;PMS_P2;Temp;Humidity;BMP_temperature;BMP_pressure;BME280_temperature;BME280_humidity;BME280_pressure;Samples;Min_cycle;Max_cycle;Signal;HPM_P1;HPM_P2
2022/01/04 00:01:16;;;;;;;;;;;8.50;99.90;;;;;;4972004;28;20360;-66
2022/01/04 00:03:42;;;;;;;;;;;8.50;99.90;;;;;;4957382;28;20005;-66
2022/01/04 00:06:08;;;;;;;;;;;8.50;99.90;;;;;;4985289;28;19913;-66
2022/01/04 00:08:33;;;;;;;;;;;8.50;99.90;;;;;;4974932;28;19969;-66
2022/01/04 00:11:15;;;;;;;;;;;8.50;99.90;;;;;;4970401;28;19945;-67
2022/01/04 00:13:41;;;;;;;;;;;8.40;99.90;;;;;;4955521;28;20386;-67
2022/01/04 00:16:08;;;;;;;;;;;8.50;99.90;;;;;;4973092;28;19997;-67
2022/01/04 00:18:33;;;;;;;;;;;8.50;99.90;;;;;;4962974;28;19910;-67
2022/01/04 00:20:59;;;;;;;;;;;8.40;99.90;;;;;;4977681;28;19910;-67
2022/01/04 00:23:25;;;;;;;;;;;8.40;99.90;;;;;;4973021;28;19964;-67
2022/01/04 00:25:50;;;;;;;;;;;8.40;99.90;;;;;;4972309;28;19914;-67
2022/01/04 00:28:16;;;;;;;;;;;8.40;99.90;;;;;;4972694;28;20347;-66
2022/01/04 00:30:42;;;;;;;;;;;8.40;99.90;;;;;;4969595;28;19914;-67
2022/01/04 00:33:08;;;;;;;;;;;8.40;99.90;;;;;;4969724;28;20046;-67
2022/01/04 00:35:34;;;;;;;;;;;8.40;99.90;;;;;;4971908;28;20385;-66
2022/01/04 00:38:00;;;;;;;;;;;8.40;99.90;;;;;;4962282;28;19913;-67
2022/01/04 00:40:25;;;;;;;;;;;8.40;99.90;;;;;;4968178;28;19910;-67
2022/01/04 00:42:52;;;;;;;;;;;8.40;99.90;;;;;;4969217;28;20009;-67
2022/01/04 00:45:18;;;;;;;;;;;8.40;99.90;;;;;;4970195;28;19918;-67
2022/01/04 00:49:09;;;;;;;;;;;8.40;99.90;;;;;;4972088;28;20276;-66
2022/01/04 00:50:33;;;;;;;;;;;8.40;99.90;;;;;;4968690;28;20291;-66
2022/01/04 00:52:59;;;;;;;;;;;8.40;99.90;;;;;;4972493;28;19910;-66
2022/01/04 00:55:25;;;;;;;;;;;8.40;99.90;;;;;;4963968;28;20401;-67
2022/01/04 00:57:50;;;;;;;;;;;8.40;99.90;;;;;;4970348;28;19921;-67
2022/01/04 01:00:16;;;;;;;;;;;8.40;99.90;;;;;;4968658;28;19910;-67
2022/01/04 01:02:42;;;;;;;;;;;8.40;99.90;;;;;;4971015;28;19910;-67
2022/01/04 01:05:08;;;;;;;;;;;8.40;99.90;;;;;;4972565;28;19914;-67
2022/01/04 01:07:34;;;;;;;;;;;8.40;99.90;;;;;;4954535;28;19921;-67
2022/01/04 01:12:44;;;;;;;;;;;8.40;99.90;;;;;;4971078;28;19976;-67
2022/01/04 01:15:10;;;;;;;;;;;8.40;99.90;;;;;;4963950;28;19960;-67
2022/01/04 01:17:36;;;;;;;;;;;8.40;99.90;;;;;;4972021;28;19910;-66
2022/01/04 01:20:03;;;;;;;;;;;8.40;99.90;;;;;;4969540;28;20342;-67
2022/01/04 01:22:28;;;;;;;;;;;8.40;99.90;;;;;;4979542;28;20410;-66
2022/01/04 01:24:54;;;;;;;;;;;8.30;99.90;;;;;;4971966;28;20012;-66
2022/01/04 01:27:19;;;;;;;;;;;8.30;99.90;;;;;;4970936;28;20306;-67
2022/01/04 01:29:45;;;;;;;;;;;8.30;99.90;;;;;;4969377;28;19938;-67
2022/01/04 01:32:10;;;;;;;;;;;8.30;99.90;;;;;;4971173;28;19910;-66
2022/01/04 01:34:36;;;;;;;;;;;8.30;99.90;;;;;;4961549;28;19946;-67
2022/01/04 01:37:02;;;;;;;;;;;8.30;99.90;;;;;;4972282;28;19910;-67
2022/01/04 01:39:27;;;;;;;;;;;8.30;99.90;;;;;;4969258;28;19953;-66
2022/01/04 01:41:53;;;;;;;;;;;8.30;99.90;;;;;;4971332;28;19914;-67
2022/01/04 01:44:19;;;;;;;;;;;8.30;99.90;;;;;;4971789;28;19910;-67
2022/01/04 01:46:45;;;;;;;;;;;8.30;99.90;;;;;;4970093;28;19917;-67
2022/01/04 01:49:10;;;;;;;;;;;8.30;99.90;;;;;;4968882;28;19910;-67
2022/01/04 01:51:36;;;;;;;;;;;8.20;99.90;;;;;;4970117;28;19910;-67
2022/01/04 01:54:02;;;;;;;;;;;8.30;99.90;;;;;;4965049;28;19945;-67
2022/01/04 01:56:29;;;;;;;;;;;8.30;99.90;;;;;;4970477;28;19920;-66
2022/01/04 01:58:55;;;;;;;;;;;8.20;99.90;;;;;;4966349;28;19910;-66
2022/01/04 02:01:21;;;;;;;;;;;8.20;99.90;;;;;;4971029;28;20005;-66
2022/01/04 02:03:46;;;;;;;;;;;8.20;99.90;;;;;;4970804;28;20024;-67
2022/01/04 02:06:12;;;;;;;;;;;8.20;99.90;;;;;;4972127;28;20012;-66
2022/01/04 02:08:37;;;;;;;;;;;8.20;99.90;;;;;;4969081;28;20454;-67
2022/01/04 02:11:03;;;;;;;;;;;8.20;99.90;;;;;;4968594;28;19910;-67
2022/01/04 02:13:29;;;;;;;;;;;8.20;99.90;;;;;;4970974;28;19914;-67
2022/01/04 02:15:55;;;;;;;;;;;8.20;99.90;;;;;;4953847;28;20287;-66
2022/01/04 02:18:20;;;;;;;;;;;8.20;99.90;;;;;;4982560;28;19949;-67
2022/01/04 02:20:46;;;;;;;;;;;8.20;99.90;;;;;;4952371;28;19977;-67
2022/01/04 02:23:11;;;;;;;;;;;8.10;99.90;;;;;;4972339;28;19910;-67
2022/01/04 02:25:37;;;;;;;;;;;8.10;99.90;;;;;;4974430;28;19953;-67
2022/01/04 02:28:02;;;;;;;;;;;8.10;99.90;;;;;;4965256;28;20013;-67
2022/01/04 02:30:28;;;;;;;;;;;8.10;99.90;;;;;;4968578;28;19910;-67
2022/01/04 02:32:54;;;;;;;;;;;8.10;99.90;;;;;;4975227;28;19910;-67
2022/01/04 02:35:22;;;;;;;;;;;8.10;99.90;;;;;;4975664;28;19960;-67
2022/01/04 02:37:47;;;;;;;;;;;8.10;99.90;;;;;;4984826;28;19918;-67
2022/01/04 02:40:13;;;;;;;;;;;8.10;99.90;;;;;;4959334;28;19937;-67
2022/01/04 02:42:38;;;;;;;;;;;8.10;99.90;;;;;;4959656;28;19917;-67
2022/01/04 02:45:04;;;;;;;;;;;8.10;99.90;;;;;;4983049;28;19916;-67
2022/01/04 02:47:30;;;;;;;;;;;8.20;99.90;;;;;;4974491;28;20393;-67
2022/01/04 02:49:56;;;;;;;;;;;8.10;99.90;;;;;;4978562;28;20386;-67
2022/01/04 02:52:21;;;;;;;;;;;8.10;99.90;;;;;;4975054;28;19957;-67
2022/01/04 02:54:47;;;;;;;;;;;8.10;99.90;;;;;;4973540;28;20107;-67
2022/01/04 02:57:12;;;;;;;;;;;8.10;99.90;;;;;;4975091;28;19938;-67
2022/01/04 02:59:38;;;;;;;;;;;8.10;99.90;;;;;;4970993;28;19910;-67
2022/01/04 03:02:04;;;;;;;;;;;8.10;99.90;;;;;;4972858;28;19910;-67
2022/01/04 03:04:30;;;;;;;;;;;8.10;99.90;;;;;;4974608;28;19910;-66
2022/01/04 03:06:55;;;;;;;;;;;8.10;99.90;;;;;;4973868;28;19956;-67
2022/01/04 03:09:21;;;;;;;;;;;8.10;99.90;;;;;;4971034;28;19914;-67
2022/01/04 03:11:46;;;;;;;;;;;8.10;99.90;;;;;;4973658;28;19918;-67
2022/01/04 03:14:12;;;;;;;;;;;8.10;99.90;;;;;;4975036;28;20381;-67
2022/01/04 03:16:37;;;;;;;;;;;8.10;99.90;;;;;;4963974;28;20384;-67
2022/01/04 03:19:06;;;;;;;;;;;8.10;99.90;;;;;;4969059;28;19911;-67
2022/01/04 03:21:34;;;;;;;;;;;8.10;99.90;;;;;;4974485;28;19910;-67
2022/01/04 03:24:00;;;;;;;;;;;8.10;99.90;;;;;;4974381;28;19913;-67
2022/01/04 03:26:25;;;;;;;;;;;8.10;99.90;;;;;;4972021;28;19910;-67
2022/01/04 03:28:51;;;;;;;;;;;8.00;99.90;;;;;;4970016;28;19914;-67
2022/01/04 03:31:17;;;;;;;;;;;8.00;99.90;;;;;;4972637;28;19921;-67
2022/01/04 03:33:42;;;;;;;;;;;8.00;99.90;;;;;;4971534;28;20012;-66
2022/01/04 03:36:08;;;;;;;;;;;8.00;99.90;;;;;;4974398;28;20025;-66
2022/01/04 03:38:33;;;;;;;;;;;8.00;99.90;;;;;;4973512;28;19914;-66
2022/01/04 03:40:59;;;;;;;;;;;8.10;99.90;;;;;;4971446;28;19937;-67
2022/01/04 03:43:24;;;;;;;;;;;8.00;99.90;;;;;;4973104;28;19910;-67
2022/01/04 03:45:50;;;;;;;;;;;8.00;99.90;;;;;;4969519;28;19910;-67
2022/01/04 03:48:16;;;;;;;;;;;8.00;99.90;;;;;;4967501;28;19914;-66
2022/01/04 03:50:41;;;;;;;;;;;8.00;99.90;;;;;;4953171;28;19914;-67
2022/01/04 03:53:07;;;;;;;;;;;8.00;99.90;;;;;;4963453;28;20387;-67
2022/01/04 03:55:32;;;;;;;;;;;8.00;99.90;;;;;;4980640;28;19917;-67
2022/01/04 03:57:58;;;;;;;;;;;8.00;99.90;;;;;;4957295;28;19937;-67
2022/01/04 04:00:23;;;;;;;;;;;8.00;99.90;;;;;;4968567;28;19956;-67
2022/01/04 04:02:49;;;;;;;;;;;8.00;99.90;;;;;;4967644;28;19953;-66
2022/01/04 04:05:15;;;;;;;;;;;8.00;99.90;;;;;;4950261;29;19910;-66
2022/01/04 04:07:41;;;;;;;;;;;8.00;99.90;;;;;;4971779;28;19921;-67
2022/01/04 04:10:07;;;;;;;;;;;8.00;99.90;;;;;;4967190;28;19914;-67
2022/01/04 04:12:32;;;;;;;;;;;8.00;99.90;;;;;;4981068;28;20374;-66
2022/01/04 04:14:58;;;;;;;;;;;7.90;99.90;;;;;;4979243;28;19910;-67
2022/01/04 04:17:24;;;;;;;;;;;8.00;99.90;;;;;;4973156;28;19918;-67
2022/01/04 04:19:49;;;;;;;;;;;7.90;99.90;;;;;;4970370;28;19916;-67
2022/01/04 04:22:15;;;;;;;;;;;7.90;99.90;;;;;;4973225;28;20282;-67
2022/01/04 04:24:41;;;;;;;;;;;7.90;99.90;;;;;;4964460;28;19911;-67
2022/01/04 04:27:07;;;;;;;;;;;7.90;99.90;;;;;;4972220;28;19918;-67
2022/01/04 04:29:33;;;;;;;;;;;7.90;99.90;;;;;;4969419;28;19910;-66
2022/01/04 04:31:58;;;;;;;;;;;7.90;99.90;;;;;;4972322;28;20342;-67
2022/01/04 04:34:24;;;;;;;;;;;7.90;99.90;;;;;;4973427;28;19910;-66
2022/01/04 04:36:49;;;;;;;;;;;7.90;99.90;;;;;;4972645;28;20001;-66
2022/01/04 04:39:15;;;;;;;;;;;7.90;99.90;;;;;;4970146;28;20375;-66
2022/01/04 04:41:40;;;;;;;;;;;7.80;99.90;;;;;;4968537;28;19910;-67
2022/01/04 04:44:06;;;;;;;;;;;7.80;99.90;;;;;;4966893;28;19910;-67
2022/01/04 04:46:32;;;;;;;;;;;7.80;99.90;;;;;;4970604;28;19910;-67
2022/01/04 04:48:59;;;;;;;;;;;7.80;99.90;;;;;;4973768;28;19921;-67
2022/01/04 04:51:26;;;;;;;;;;;7.80;99.90;;;;;;4976250;28;19992;-67
2022/01/04 04:53:52;;;;;;;;;;;7.80;99.90;;;;;;4973053;28;19949;-67
2022/01/04 04:56:17;;;;;;;;;;;7.80;99.90;;;;;;4970881;28;19968;-66
2022/01/04 04:58:43;;;;;;;;;;;7.80;99.90;;;;;;4967795;28;19917;-67
2022/01/04 05:01:08;;;;;;;;;;;7.80;99.90;;;;;;4952244;28;19917;-67
2022/01/04 05:03:34;;;;;;;;;;;7.80;99.90;;;;;;4970820;28;20405;-67
2022/01/04 05:05:59;;;;;;;;;;;7.90;99.90;;;;;;4971646;28;19910;-67
2022/01/04 05:08:25;;;;;;;;;;;7.80;99.90;;;;;;4972097;28;19921;-67
2022/01/04 05:10:50;;;;;;;;;;;7.80;99.90;;;;;;4955638;28;19934;-67
2022/01/04 05:13:16;;;;;;;;;;;7.90;99.90;;;;;;4972638;28;19926;-67
2022/01/04 05:15:41;;;;;;;;;;;7.80;99.90;;;;;;4972285;28;20287;-67
2022/01/04 05:18:08;;;;;;;;;;;7.80;99.90;;;;;;4972570;28;19914;-67
2022/01/04 05:20:33;;;;;;;;;;;7.80;99.90;;;;;;4956745;28;20029;-67
2022/01/04 05:22:59;;;;;;;;;;;7.80;99.90;;;;;;4965342;28;20406;-67
2022/01/04 05:25:24;;;;;;;;;;;7.80;99.90;;;;;;4971109;28;19910;-67
2022/01/04 05:27:50;;;;;;;;;;;7.80;99.90;;;;;;4970629;28;19956;-67
2022/01/04 05:30:15;;;;;;;;;;;7.80;99.90;;;;;;4970924;28;19914;-66
2022/01/04 05:32:41;;;;;;;;;;;7.90;99.90;;;;;;4954366;28;19993;-67
2022/01/04 05:35:07;;;;;;;;;;;7.80;99.90;;;;;;4972098;28;19918;-67
2022/01/04 05:37:32;;;;;;;;;;;7.80;99.90;;;;;;4970721;28;19933;-67
2022/01/04 05:39:58;;;;;;;;;;;7.80;99.90;;;;;;4964411;28;20029;-67
2022/01/04 05:42:23;;;;;;;;;;;7.80;99.90;;;;;;4971569;28;20465;-66
2022/01/04 05:44:49;;;;;;;;;;;7.80;99.90;;;;;;4971601;28;19910;-67
2022/01/04 05:47:14;;;;;;;;;;;7.80;99.90;;;;;;4970216;28;20306;-67
2022/01/04 05:49:40;;;;;;;;;;;7.80;99.90;;;;;;4950320;28;20404;-67
2022/01/04 05:52:05;;;;;;;;;;;7.80;99.90;;;;;;4971765;28;19910;-67
2022/01/04 05:54:31;;;;;;;;;;;7.80;99.90;;;;;;4968804;28;20383;-67
2022/01/04 05:56:57;;;;;;;;;;;7.80;99.90;;;;;;4969211;28;19910;-67
2022/01/04 05:59:22;;;;;;;;;;;7.80;99.90;;;;;;4971132;28;19910;-67
2022/01/04 06:01:48;;;;;;;;;;;7.90;99.90;;;;;;4973845;28;20037;-67
2022/01/04 06:04:14;;;;;;;;;;;7.80;99.90;;;;;;4975488;28;19917;-67
2022/01/04 06:06:41;;;;;;;;;;;7.90;99.90;;;;;;4975600;28;20290;-66
2022/01/04 06:09:09;;;;;;;;;;;7.90;99.90;;;;;;4972916;28;19946;-67
2022/01/04 06:16:50;;;;;;;;;;;7.80;99.90;;;;;;4973491;28;19917;-67
2022/01/04 06:19:16;;;;;;;;;;;7.80;99.90;;;;;;4970429;28;20283;-67
2022/01/04 06:21:41;;;;;;;;;;;7.80;99.90;;;;;;4974412;28;19997;-67
2022/01/04 06:24:07;;;;;;;;;;;7.80;99.90;;;;;;4975870;28;20106;-67
2022/01/04 06:26:33;;;;;;;;;;;7.80;99.90;;;;;;4974540;28;20017;-67
2022/01/04 06:28:58;;;;;;;;;;;7.80;99.90;;;;;;4971535;28;19918;-67
2022/01/04 06:31:25;;;;;;;;;;;7.80;99.90;;;;;;4975147;28;19909;-67
2022/01/04 06:33:50;;;;;;;;;;;7.80;99.90;;;;;;4973739;28;19925;-67
2022/01/04 06:36:16;;;;;;;;;;;7.70;99.90;;;;;;4973471;28;19914;-67
2022/01/04 06:38:41;;;;;;;;;;;7.80;99.90;;;;;;4967894;28;19976;-67
2022/01/04 06:41:07;;;;;;;;;;;7.80;99.90;;;;;;4974797;28;19956;-66
2022/01/04 06:43:32;;;;;;;;;;;7.80;99.90;;;;;;4974645;28;19910;-67
2022/01/04 06:45:58;;;;;;;;;;;7.80;99.90;;;;;;4973809;28;19910;-66
2022/01/04 06:48:23;;;;;;;;;;;7.80;99.90;;;;;;4972460;28;20016;-67
2022/01/04 06:50:49;;;;;;;;;;;7.80;99.90;;;;;;4954523;28;19910;-67
2022/01/04 06:53:14;;;;;;;;;;;7.80;99.90;;;;;;4974701;28;19932;-66
2022/01/04 06:55:40;;;;;;;;;;;7.80;99.90;;;;;;4973857;28;19924;-67
2022/01/04 06:58:06;;;;;;;;;;;7.80;99.90;;;;;;4966113;28;20422;-67
2022/01/04 07:00:31;;;;;;;;;;;7.80;99.90;;;;;;4971388;28;19945;-67
2022/01/04 07:02:57;;;;;;;;;;;7.80;99.90;;;;;;4972889;28;19976;-67
2022/01/04 07:05:22;;;;;;;;;;;7.80;99.90;;;;;;4982984;28;19917;-67
2022/01/04 07:07:48;;;;;;;;;;;7.80;99.90;;;;;;4973998;28;19914;-67
2022/01/04 07:10:13;;;;;;;;;;;7.80;99.90;;;;;;4968245;28;19910;-67
2022/01/04 07:12:39;;;;;;;;;;;7.80;99.90;;;;;;4972182;28;19909;-66
2022/01/04 07:15:05;;;;;;;;;;;7.80;99.90;;;;;;4962678;28;19933;-67
2022/01/04 07:17:30;;;;;;;;;;;7.80;99.90;;;;;;4971170;28;19917;-67
2022/01/04 07:19:56;;;;;;;;;;;7.80;99.90;;;;;;4953761;28;19910;-67
2022/01/04 07:22:21;;;;;;;;;;;7.90;99.90;;;;;;4979083;28;19918;-67
2022/01/04 07:24:47;;;;;;;;;;;7.80;99.90;;;;;;4971587;28;19984;-67
2022/01/04 07:27:12;;;;;;;;;;;7.80;99.90;;;;;;4972836;28;19921;-67
2022/01/04 07:29:38;;;;;;;;;;;7.90;99.90;;;;;;4968288;28;20350;-67
2022/01/04 07:32:03;;;;;;;;;;;7.90;99.90;;;;;;4970962;28;20685;-67
2022/01/04 07:34:29;;;;;;;;;;;7.90;99.90;;;;;;4978076;28;19909;-67
2022/01/04 07:36:54;;;;;;;;;;;7.80;99.90;;;;;;4973552;28;19946;-67
2022/01/04 07:39:20;;;;;;;;;;;7.90;99.90;;;;;;4971355;28;20367;-67
2022/01/04 07:41:46;;;;;;;;;;;7.90;99.90;;;;;;4970478;28;19921;-67
2022/01/04 07:44:11;;;;;;;;;;;7.90;99.90;;;;;;4972127;28;19918;-67
2022/01/04 07:46:37;;;;;;;;;;;7.90;99.90;;;;;;4964918;28;20415;-67
2022/01/04 07:49:03;;;;;;;;;;;7.90;99.90;;;;;;4968141;28;19914;-67
2022/01/04 07:51:29;;;;;;;;;;;7.90;99.90;;;;;;5057830;22;19932;-69
2022/01/04 07:53:54;;;;;;;;;;;7.90;99.90;;;;;;5048314;28;20299;-69
2022/01/04 07:56:20;;;;;;;;;;;7.90;99.90;;;;;;5034225;28;19924;-69
2022/01/04 07:58:45;;;;;;;;;;;7.90;99.90;;;;;;5050852;28;19915;-69
2022/01/04 08:01:11;;;;;;;;;;;7.90;99.90;;;;;;5028266;28;19924;-69
2022/01/04 08:03:36;;;;;;;;;;;7.90;99.90;;;;;;5045733;28;19908;-69
2022/01/04 08:06:02;;;;;;;;;;;7.90;99.90;;;;;;5049066;28;20299;-69
2022/01/04 08:08:27;;;;;;;;;;;7.90;99.90;;;;;;5048029;28;19919;-69
2022/01/04 08:10:53;;;;;;;;;;;7.90;99.90;;;;;;5028447;28;19909;-69
2022/01/04 08:13:19;;;;;;;;;;;7.90;99.90;;;;;;5052102;28;19912;-69
2022/01/04 08:15:44;;;;;;;;;;;7.90;99.90;;;;;;5049224;28;20406;-69
2022/01/04 08:18:10;;;;;;;;;;;7.80;99.90;;;;;;5047650;28;19908;-69
2022/01/04 08:20:35;;;;;;;;;;;7.80;99.90;;;;;;5044549;28;20091;-69
2022/01/04 08:23:02;;;;;;;;;;;7.80;99.90;;;;;;5050096;28;19908;-69
2022/01/04 08:25:27;;;;;;;;;;;7.80;99.90;;;;;;5048294;28;19954;-69
2022/01/04 08:27:53;;;;;;;;;;;7.90;99.90;;;;;;5047137;28;19916;-69
2022/01/04 08:30:19;;;;;;;;;;;7.90;99.90;;;;;;5048085;28;19913;-69
2022/01/04 08:32:44;;;;;;;;;;;7.90;99.90;;;;;;5048469;28;19908;-69
2022/01/04 08:35:10;;;;;;;;;;;7.90;99.90;;;;;;5048857;28;19908;-69
2022/01/04 08:37:36;;;;;;;;;;;7.90;99.90;;;;;;5047691;28;20505;-69
2022/01/04 08:40:03;;;;;;;;;;;7.90;99.90;;;;;;5046646;28;19924;-70
2022/01/04 08:42:28;;;;;;;;;;;7.90;99.90;;;;;;5029755;28;19951;-69
2022/01/04 08:44:55;;;;;;;;;;;7.90;99.90;;;;;;5045698;28;20440;-69
2022/01/04 08:47:21;;;;;;;;;;;7.90;99.90;;;;;;5047942;28;19917;-69
2022/01/04 08:49:47;;;;;;;;;;;7.90;99.90;;;;;;5029973;28;19925;-69
2022/01/04 08:52:12;;;;;;;;;;;8.00;99.90;;;;;;5045928;28;19917;-69
2022/01/04 08:54:38;;;;;;;;;;;8.00;99.90;;;;;;5046287;28;20306;-69
2022/01/04 08:57:04;;;;;;;;;;;8.00;99.90;;;;;;5024826;28;20040;-69
2022/01/04 08:59:32;;;;;;;;;;;8.00;99.90;;;;;;5043127;28;19950;-69
2022/01/04 09:01:57;;;;;;;;;;;8.00;99.90;;;;;;5047449;28;20005;-69
2022/01/04 09:04:23;;;;;;;;;;;8.00;99.90;;;;;;5050765;28;19947;-70
2022/01/04 09:06:48;;;;;;;;;;;8.00;99.90;;;;;;5050866;28;19909;-68
2022/01/04 09:09:14;;;;;;;;;;;8.10;99.90;;;;;;5018224;28;19909;-69
2022/01/04 09:11:41;;;;;;;;;;;8.00;99.90;;;;;;5050825;28;20007;-69
2022/01/04 09:19:22;;;;;;;;;;;8.00;99.90;;;;;;5047433;28;20016;-69
2022/01/04 09:21:48;;;;;;;;;;;8.10;99.90;;;;;;5045385;28;19909;-69
2022/01/04 09:24:14;;;;;;;;;;;8.00;99.90;;;;;;5041680;28;20399;-70
2022/01/04 09:26:39;;;;;;;;;;;8.10;99.90;;;;;;5040250;28;20337;-74
2022/01/04 09:29:05;;;;;;;;;;;7.80;99.90;;;;;;5041108;28;19913;-71
2022/01/04 09:31:30;;;;;;;;;;;7.30;99.90;;;;;;5042883;28;19920;-71
2022/01/04 09:33:57;;;;;;;;;;;7.30;99.90;;;;;;5026823;28;20433;-71
2022/01/04 09:36:23;;;;;;;;;;;7.40;99.90;;;;;;5045202;28;20272;-71
2022/01/04 09:38:48;;;;;;;;;;;7.40;99.90;;;;;;5041857;28;19908;-71
2022/01/04 09:41:14;;;;;;;;;;;7.50;99.90;;;;;;5044367;28;19912;-71
2022/01/04 09:43:39;;;;;;;;;;;7.50;99.90;;;;;;5043252;28;19917;-71
2022/01/04 09:46:05;;;;;;;;;;;7.50;99.90;;;;;;5043668;28;19912;-71
2022/01/04 09:48:31;;;;;;;;;;;7.50;99.90;;;;;;5042978;28;19928;-71
2022/01/04 09:50:57;;;;;;;;;;;7.60;99.90;;;;;;5041803;28;20302;-71
2022/01/04 09:53:23;;;;;;;;;;;7.70;99.90;;;;;;5044102;28;19939;-71
2022/01/04 09:55:49;;;;;;;;;;;7.70;99.90;;;;;;5040109;28;20382;-71
2022/01/04 09:58:16;;;;;;;;;;;7.70;99.90;;;;;;5044204;28;20055;-71
2022/01/04 10:00:41;;;;;;;;;;;7.80;99.90;;;;;;5038939;28;19909;-72
2022/01/04 10:03:12;;;;;;;;;;;7.80;99.90;;;;;;5042510;28;19986;-72
2022/01/04 10:05:37;;;;;;;;;;;7.80;99.90;;;;;;5043253;28;19921;-72
2022/01/04 10:08:05;;;;;;;;;;;7.90;99.90;;;;;;5044187;28;20453;-72
2022/01/04 10:10:31;;;;;;;;;;;7.90;99.90;;;;;;5038714;28;19909;-71
2022/01/04 10:12:59;;;;;;;;;;;7.80;99.90;;;;;;5043027;28;20436;-71
2022/01/04 10:15:34;;;;;;;;;;;7.90;99.90;;;;;;5023502;28;19919;-72
2022/01/04 10:18:12;;;;;;;;;;;7.90;99.90;;;;;;5045501;28;19944;-71
2022/01/04 10:20:37;;;;;;;;;;;7.90;99.90;;;;;;5042557;28;20026;-71
2022/01/04 10:23:13;;;;;;;;;;;7.90;99.90;;;;;;5046810;28;19909;-72
2022/01/04 10:25:39;;;;;;;;;;;7.90;99.90;;;;;;5040914;28;19987;-72
2022/01/04 10:28:05;;;;;;;;;;;7.90;99.90;;;;;;5025377;28;20084;-72
2022/01/04 10:30:32;;;;;;;;;;;7.90;99.90;;;;;;5039544;28;20263;-72
2022/01/04 10:33:00;;;;;;;;;;;7.90;99.90;;;;;;5024876;28;20375;-72
2022/01/04 10:35:30;;;;;;;;;;;8.00;99.90;;;;;;5039822;28;19909;-72
2022/01/04 10:37:57;;;;;;;;;;;8.00;99.90;;;;;;5038872;28;20286;-72
2022/01/04 10:40:23;;;;;;;;;;;8.10;99.90;;;;;;5043510;28;19915;-72
2022/01/04 10:42:48;;;;;;;;;;;8.10;99.90;;;;;;5026561;28;19909;-72
2022/01/04 10:45:20;;;;;;;;;;;8.10;99.90;;;;;;5039770;28;20018;-72
2022/01/04 10:47:45;;;;;;;;;;;8.10;99.90;;;;;;5031339;28;19912;-72
2022/01/04 10:50:11;;;;;;;;;;;8.10;99.90;;;;;;5036509;28;19931;-72
2022/01/04 10:52:36;;;;;;;;;;;8.10;99.90;;;;;;5051350;28;20023;-72
2022/01/04 10:55:14;;;;;;;;;;;8.10;99.90;;;;;;5050067;28;19923;-72
2022/01/04 10:57:40;;;;;;;;;;;8.10;99.90;;;;;;5042235;28;19913;-72
2022/01/04 11:00:16;;;;;;;;;;;8.10;99.90;;;;;;5050228;28;20457;-72
2022/01/04 11:02:41;;;;;;;;;;;8.00;99.90;;;;;;5043366;28;20375;-72
2022/01/04 11:05:11;;;;;;;;;;;8.00;99.90;;;;;;5028731;28;19909;-72
2022/01/04 11:07:54;;;;;;;;;;;8.10;99.90;;;;;;5049108;28;19920;-72
2022/01/04 11:10:20;;;;;;;;;;;8.10;99.90;;;;;;5046766;28;19955;-72
2022/01/04 11:12:46;;;;;;;;;;;8.20;99.90;;;;;;5049538;28;20365;-72
2022/01/04 11:15:12;;;;;;;;;;;8.20;99.90;;;;;;5031248;28;19908;-71
2022/01/04 11:17:38;;;;;;;;;;;8.20;99.90;;;;;;5052339;28;19908;-72
2022/01/04 11:20:04;;;;;;;;;;;8.20;99.90;;;;;;5050514;28;20295;-71
2022/01/04 11:22:29;;;;;;;;;;;8.10;99.90;;;;;;5043769;28;19913;-71
2022/01/04 11:24:55;;;;;;;;;;;8.10;99.90;;;;;;5050832;28;19913;-71
2022/01/04 11:27:20;;;;;;;;;;;8.10;99.90;;;;;;5045171;28;20183;-71
2022/01/04 11:29:48;;;;;;;;;;;8.10;99.90;;;;;;5047347;28;20353;-71
2022/01/04 11:32:16;;;;;;;;;;;8.20;99.90;;;;;;5049659;28;19908;-72
2022/01/04 11:34:57;;;;;;;;;;;8.20;99.90;;;;;;5044762;28;19909;-71
2022/01/04 11:37:23;;;;;;;;;;;8.20;99.90;;;;;;5044355;28;19955;-71
2022/01/04 11:39:51;;;;;;;;;;;8.20;99.90;;;;;;5039024;28;19962;-71
2022/01/04 11:42:31;;;;;;;;;;;8.30;99.90;;;;;;5023834;28;19918;-71
2022/01/04 11:44:57;;;;;;;;;;;8.20;99.90;;;;;;5041686;28;19913;-71
2022/01/04 11:47:25;;;;;;;;;;;8.20;99.90;;;;;;5043107;28;19913;-72
2022/01/04 11:50:13;;;;;;;;;;;8.30;99.90;;;;;;5024547;28;19924;-71
2022/01/04 11:52:47;;;;;;;;;;;8.20;99.90;;;;;;5034619;28;19927;-71
2022/01/04 11:55:21;;;;;;;;;;;8.20;99.90;;;;;;5041841;28;19908;-71
2022/01/04 11:57:48;;;;;;;;;;;8.20;99.90;;;;;;5041687;28;20050;-71
2022/01/04 12:00:34;;;;;;;;;;;8.20;99.90;;;;;;5039425;28;19912;-71
2022/01/04 12:03:05;;;;;;;;;;;8.20;99.90;;;;;;5043671;28;19963;-72
2022/01/04 12:05:31;;;;;;;;;;;8.10;99.90;;;;;;5047432;28;19912;-72
2022/01/04 12:08:20;;;;;;;;;;;8.00;99.90;;;;;;5045820;28;20302;-71
2022/01/04 12:10:46;;;;;;;;;;;7.90;99.90;;;;;;5029126;28;19959;-72
2022/01/04 12:13:14;;;;;;;;;;;7.80;99.90;;;;;;5045435;28;19978;-72
2022/01/04 12:15:47;;;;;;;;;;;7.70;99.90;;;;;;5047125;28;19912;-71
2022/01/04 12:18:31;;;;;;;;;;;7.70;99.90;;;;;;5046676;28;19908;-71
2022/01/04 12:20:58;;;;;;;;;;;7.60;99.90;;;;;;5046468;28;20728;-71
2022/01/04 12:23:26;;;;;;;;;;;7.60;99.90;;;;;;5049127;28;19966;-72
2022/01/04 12:26:00;;;;;;;;;;;7.60;99.90;;;;;;5045637;28;19940;-71
2022/01/04 12:28:26;;;;;;;;;;;7.60;99.90;;;;;;5040843;28;19912;-71
2022/01/04 12:31:12;;;;;;;;;;;7.60;99.90;;;;;;5042472;28;19935;-71
2022/01/04 12:33:37;;;;;;;;;;;7.60;99.90;;;;;;5042144;28;19924;-72
2022/01/04 12:36:03;;;;;;;;;;;7.60;99.90;;;;;;5044577;28;19931;-71
2022/01/04 12:38:30;;;;;;;;;;;7.60;99.90;;;;;;5042220;28;19909;-71
2022/01/04 12:40:56;;;;;;;;;;;7.70;99.90;;;;;;5041508;28;19916;-71
2022/01/04 12:43:21;;;;;;;;;;;7.60;99.90;;;;;;5048032;28;19908;-71
2022/01/04 12:45:55;;;;;;;;;;;7.60;99.90;;;;;;5042275;28;20363;-71
2022/01/04 12:48:41;;;;;;;;;;;7.50;99.90;;;;;;5048622;28;19917;-71
2022/01/04 12:51:25;;;;;;;;;;;7.50;99.90;;;;;;5029133;28;19943;-71
2022/01/04 12:53:51;;;;;;;;;;;7.40;99.90;;;;;;5044354;28;19909;-70
2022/01/04 12:56:17;;;;;;;;;;;7.30;99.90;;;;;;5043835;28;19919;-71
2022/01/04 12:58:43;;;;;;;;;;;7.40;99.90;;;;;;5040870;28;19991;-71
2022/01/04 13:01:08;;;;;;;;;;;7.40;99.90;;;;;;5048818;28;20389;-71
2022/01/04 13:03:34;;;;;;;;;;;7.40;99.90;;;;;;5046259;28;20375;-70
2022/01/04 13:06:02;;;;;;;;;;;7.20;99.90;;;;;;5041733;28;19924;-71
2022/01/04 13:08:28;;;;;;;;;;;7.00;99.90;;;;;;5053235;28;19912;-70
2022/01/04 13:11:03;;;;;;;;;;;7.00;99.90;;;;;;5053373;28;19912;-71
2022/01/04 13:13:30;;;;;;;;;;;7.00;99.90;;;;;;5051819;28;19912;-71
2022/01/04 13:16:15;;;;;;;;;;;7.00;99.90;;;;;;5046178;28;19913;-71
2022/01/04 13:18:41;;;;;;;;;;;6.80;99.90;;;;;;5037184;28;19920;-71
2022/01/04 13:21:06;;;;;;;;;;;6.90;99.90;;;;;;5047092;28;19912;-70
2022/01/04 13:23:39;;;;;;;;;;;6.80;99.90;;;;;;5044094;28;19908;-72
2022/01/04 13:26:04;;;;;;;;;;;6.80;99.90;;;;;;5049797;28;19908;-70
2022/01/04 13:28:30;;;;;;;;;;;6.60;99.90;;;;;;5027869;28;19917;-70
2022/01/04 13:30:55;;;;;;;;;;;6.60;99.90;;;;;;5042483;28;19908;-70
2022/01/04 13:33:22;;;;;;;;;;;6.60;99.90;;;;;;5043084;28;19916;-70
2022/01/04 13:35:48;;;;;;;;;;;6.50;99.90;;;;;;5030938;28;19924;-70
2022/01/04 13:38:19;;;;;;;;;;;6.50;99.90;;;;;;5046075;28;19909;-70
2022/01/04 13:40:45;;;;;;;;;;;6.60;99.90;;;;;;5028928;28;19919;-70
2022/01/04 13:43:11;;;;;;;;;;;6.50;99.90;;;;;;5046432;28;19908;-70
2022/01/04 13:45:56;;;;;;;;;;;6.20;99.90;;;;;;5043986;28;19916;-70
2022/01/04 13:48:23;;;;;;;;;;;6.40;99.90;;;;;;5041886;28;19917;-71
2022/01/04 13:50:48;;;;;;;;;;;6.30;99.90;;;;;;5047116;28;20003;-71
2022/01/04 13:53:16;;;;;;;;;;;6.30;99.90;;;;;;5046178;28;19927;-71
2022/01/04 13:55:51;;;;;;;;;;;6.30;99.90;;;;;;5031019;28;19909;-70
2022/01/04 13:58:31;;;;;;;;;;;6.30;99.90;;;;;;5025302;28;19967;-70
2022/01/04 14:00:57;;;;;;;;;;;6.10;99.90;;;;;;5044872;28;19916;-70
2022/01/04 14:03:26;;;;;;;;;;;6.30;99.90;;;;;;5041831;28;19909;-70
2022/01/04 14:05:52;;;;;;;;;;;6.20;99.90;;;;;;5029745;28;19927;-69
2022/01/04 14:08:17;;;;;;;;;;;6.10;99.90;;;;;;5048604;28;20409;-70
2022/01/04 14:10:53;;;;;;;;;;;6.10;99.90;;;;;;5046421;28;19999;-70
2022/01/04 14:13:27;;;;;;;;;;;6.10;99.90;;;;;;5034624;28;19909;-70
2022/01/04 14:16:09;;;;;;;;;;;6.20;99.90;;;;;;5041778;28;20338;-70
2022/01/04 14:18:35;;;;;;;;;;;6.10;99.90;;;;;;5044918;28;19943;-69
2022/01/04 14:21:01;;;;;;;;;;;6.10;99.90;;;;;;5047085;28;19912;-70
2022/01/04 14:23:30;;;;;;;;;;;6.00;99.90;;;;;;5050409;28;19915;-70
2022/01/04 14:26:05;;;;;;;;;;;6.20;99.90;;;;;;5048226;28;19908;-70
2022/01/04 14:28:31;;;;;;;;;;;6.20;99.90;;;;;;5051116;28;20382;-70
2022/01/04 14:30:57;;;;;;;;;;;6.10;99.90;;;;;;5049877;28;19913;-69
2022/01/04 14:33:23;;;;;;;;;;;6.10;99.90;;;;;;5048672;28;19955;-70
2022/01/04 14:35:49;;;;;;;;;;;6.00;99.90;;;;;;5045992;28;19940;-70
2022/01/04 14:38:15;;;;;;;;;;;6.00;99.90;;;;;;5050278;28;20306;-70
2022/01/04 14:40:42;;;;;;;;;;;6.00;99.90;;;;;;5048493;28;19908;-70
2022/01/04 14:43:07;;;;;;;;;;;5.90;99.90;;;;;;5049202;28;19915;-70